Time;durP1;ratioP1;P1;durP2;ratioP2;P2;SDS_P1;SDS_P2;PMS_P1;PMS_P2;Temp;Humidity;BMP_temperature;BMP_pressure;BME280_temperature;BME280_humidity;BME280_pressure;Samples;Min_cycle;Max_cycle;Signal;HPM_P1;HPM_P2
2024/04/15 00:01:54;;;;;;;0.50;0.40;;;10.10;99.90;;;;;;5426846;26;20224;-82
2024/04/15 00:04:20;;;;;;;0.50;0.40;;;10.10;99.90;;;;;;5428082;26;20272;-82
2024/04/15 00:06:49;;;;;;;0.50;0.40;;;10.10;99.90;;;;;;5420377;26;20692;-81
2024/04/15 00:09:14;;;;;;;0.50;0.40;;;10.10;99.90;;;;;;5416179;26;20472;-82
2024/04/15 00:11:43;;;;;;;0.50;0.40;;;10.10;99.90;;;;;;5416584;26;20577;-82
2024/04/15 00:14:11;;;;;;;0.50;0.50;;;10.10;99.90;;;;;;5416547;26;20458;-82
2024/04/15 00:16:40;;;;;;;0.50;0.40;;;10.00;99.90;;;;;;5416925;26;20260;-82
2024/04/15 00:19:05;;;;;;;0.50;0.40;;;9.90;99.90;;;;;;5416951;26;20303;-81
2024/04/15 00:21:34;;;;;;;0.50;0.40;;;10.00;99.90;;;;;;5419238;26;20338;-82
2024/04/15 00:24:00;;;;;;;0.50;0.40;;;10.00;99.90;;;;;;5417053;26;20443;-81
2024/04/15 00:26:28;;;;;;;0.50;0.40;;;10.00;99.90;;;;;;5417035;26;20276;-80
2024/04/15 00:28:54;;;;;;;0.50;0.40;;;10.00;99.90;;;;;;5416822;26;20467;-82
2024/04/15 00:31:25;;;;;;;0.50;0.40;;;9.90;99.90;;;;;;5416930;26;20919;-83
2024/04/15 00:33:51;;;;;;;0.50;0.40;;;9.80;99.90;;;;;;5420800;26;20261;-82
2024/04/15 00:36:19;;;;;;;0.60;0.60;;;9.70;99.90;;;;;;5417089;26;20295;-83
2024/04/15 00:38:45;;;;;;;0.50;0.40;;;9.70;99.90;;;;;;5416662;26;20828;-82
2024/04/15 00:41:14;;;;;;;0.50;0.40;;;9.60;99.90;;;;;;5416505;26;20224;-83
2024/04/15 00:43:40;;;;;;;0.50;0.40;;;9.50;99.90;;;;;;5416638;26;20276;-82
2024/04/15 00:46:08;;;;;;;0.50;0.40;;;9.40;99.90;;;;;;5416637;26;20221;-81
2024/04/15 00:48:37;;;;;;;0.50;0.50;;;9.40;99.90;;;;;;5422432;26;20284;-83
2024/04/15 00:51:06;;;;;;;0.50;0.40;;;9.40;99.90;;;;;;5422927;26;20220;-82
2024/04/15 00:53:35;;;;;;;0.50;0.40;;;9.30;99.90;;;;;;5420448;26;20272;-82
2024/04/15 00:56:03;;;;;;;0.50;0.40;;;9.30;99.90;;;;;;5421276;26;20306;-83
2024/04/15 00:58:33;;;;;;;1.17;1.17;;;9.40;99.90;;;;;;5420208;26;20228;-83
2024/04/15 01:01:00;;;;;;;0.50;0.40;;;9.30;99.90;;;;;;5420578;26;20338;-82
2024/04/15 01:03:30;;;;;;;0.50;0.40;;;9.20;99.90;;;;;;5418747;26;20247;-80
2024/04/15 01:05:58;;;;;;;0.50;0.40;;;9.20;99.90;;;;;;5419773;26;20216;-83
2024/04/15 01:08:27;;;;;;;0.50;0.40;;;9.30;99.90;;;;;;5424086;26;20781;-81
2024/04/15 01:10:53;;;;;;;0.50;0.40;;;9.20;99.90;;;;;;5424451;26;20510;-83
2024/04/15 01:13:21;;;;;;;0.50;0.40;;;9.20;99.90;;;;;;5424800;26;20534;-84
2024/04/15 01:15:47;;;;;;;0.50;0.40;;;9.30;99.90;;;;;;5425089;26;20276;-83
2024/04/15 01:18:15;;;;;;;0.50;0.40;;;9.30;99.90;;;;;;5424831;26;20236;-83
2024/04/15 01:20:41;;;;;;;0.50;0.40;;;9.30;99.90;;;;;;5424427;26;20272;-83
2024/04/15 01:23:19;;;;;;;4.23;4.03;;;9.40;99.90;;;;;;5425551;26;20321;-84
2024/04/15 01:25:47;;;;;;;0.50;0.40;;;9.40;99.90;;;;;;5424871;26;20536;-82
2024/04/15 01:28:19;;;;;;;0.50;0.40;;;9.40;99.90;;;;;;5424519;26;20271;-83
2024/04/15 01:30:45;;;;;;;0.50;0.40;;;9.30;99.90;;;;;;5424591;26;20551;-83
2024/04/15 01:33:13;;;;;;;0.50;0.40;;;9.30;99.90;;;;;;5424372;26;20295;-83
2024/04/15 01:35:39;;;;;;;0.50;0.40;;;9.40;99.90;;;;;;5423755;26;20561;-84
2024/04/15 01:38:07;;;;;;;0.50;0.50;;;9.40;99.90;;;;;;5424197;26;20225;-82
2024/04/15 01:40:33;;;;;;;0.50;0.40;;;9.40;99.90;;;;;;5424814;26;20305;-84
2024/04/15 01:43:04;;;;;;;0.50;0.43;;;9.40;99.90;;;;;;5424398;26;20222;-84
2024/04/15 01:45:30;;;;;;;0.50;0.40;;;9.40;99.90;;;;;;5424321;26;20735;-83
2024/04/15 01:47:59;;;;;;;0.50;0.40;;;9.40;99.90;;;;;;5423942;26;20279;-84
2024/04/15 01:50:24;;;;;;;0.50;0.40;;;9.40;99.90;;;;;;5424037;26;20306;-82
2024/04/15 01:52:53;;;;;;;0.50;0.40;;;9.40;99.90;;;;;;5423848;26;20225;-82
2024/04/15 01:55:19;;;;;;;0.50;0.40;;;9.30;99.90;;;;;;5424266;26;20213;-82
2024/04/15 01:57:47;;;;;;;0.50;0.40;;;9.30;99.90;;;;;;5424289;26;20615;-83
2024/04/15 02:00:16;;;;;;;0.50;0.40;;;9.30;99.90;;;;;;5424245;26;20213;-84
2024/04/15 02:02:44;;;;;;;0.50;0.40;;;9.30;99.90;;;;;;5423890;26;20256;-79
2024/04/15 02:05:10;;;;;;;0.50;0.40;;;9.20;99.90;;;;;;5424564;26;20339;-82
2024/04/15 02:07:38;;;;;;;0.50;0.40;;;9.10;99.90;;;;;;5424509;26;20708;-84
2024/04/15 02:10:05;;;;;;;0.50;0.40;;;9.00;99.90;;;;;;5424520;26;20442;-83
2024/04/15 02:12:34;;;;;;;0.50;0.40;;;9.00;99.90;;;;;;5423869;26;20222;-83
2024/04/15 02:15:00;;;;;;;0.60;0.60;;;9.00;99.90;;;;;;5424034;26;20274;-83
2024/04/15 02:17:31;;;;;;;0.50;0.40;;;9.00;99.90;;;;;;5423030;26;20225;-84
2024/04/15 02:19:56;;;;;;;0.50;0.40;;;8.90;99.90;;;;;;5423349;26;20224;-82
2024/04/15 02:22:25;;;;;;;0.73;0.73;;;8.90;99.90;;;;;;5424402;26;20216;-83
2024/04/15 02:24:51;;;;;;;0.50;0.40;;;8.90;99.90;;;;;;5423532;26;20247;-82
2024/04/15 02:27:19;;;;;;;0.50;0.40;;;8.90;99.90;;;;;;5423813;26;20213;-82
2024/04/15 02:29:45;;;;;;;0.50;0.40;;;8.80;99.90;;;;;;5424342;26;20450;-83
2024/04/15 02:32:13;;;;;;;0.50;0.40;;;8.80;99.90;;;;;;5423554;26;20259;-83
2024/04/15 02:34:44;;;;;;;0.50;0.40;;;8.80;99.90;;;;;;5423270;26;20317;-82
2024/04/15 02:37:12;;;;;;;0.50;0.40;;;8.80;99.90;;;;;;5421908;26;20259;-81
2024/04/15 02:39:38;;;;;;;0.50;0.50;;;8.80;99.90;;;;;;5423443;26;20322;-84
2024/04/15 02:42:07;;;;;;;0.50;0.40;;;8.80;99.90;;;;;;5423893;26;20221;-83
2024/04/15 02:44:33;;;;;;;0.50;0.40;;;8.70;99.90;;;;;;5422942;26;20264;-83
2024/04/15 02:47:01;;;;;;;1.47;1.37;;;8.70;99.90;;;;;;5422722;26;20309;-82
2024/04/15 02:49:27;;;;;;;0.50;0.40;;;8.60;99.90;;;;;;5423330;26;20312;-83
2024/04/15 02:51:59;;;;;;;0.60;0.60;;;8.70;99.90;;;;;;5422700;26;20228;-83
2024/04/15 02:54:25;;;;;;;0.93;0.82;;;8.70;99.90;;;;;;5422875;26;20526;-83
2024/04/15 02:56:53;;;;;;;0.50;0.50;;;8.80;99.90;;;;;;5423136;26;20313;-82
2024/04/15 02:59:19;;;;;;;7.38;0.93;;;8.80;99.90;;;;;;5422675;26;20601;-83
2024/04/15 03:01:47;;;;;;;0.50;0.43;;;8.80;99.90;;;;;;5422964;26;20217;-82
2024/04/15 03:04:13;;;;;;;0.60;0.60;;;8.70;99.90;;;;;;5422932;26;20268;-83
2024/04/15 03:06:42;;;;;;;0.90;0.73;;;8.70;99.90;;;;;;5421486;26;20224;-80
2024/04/15 03:09:10;;;;;;;3.63;3.33;;;8.70;99.90;;;;;;5421536;26;20306;-83
2024/04/15 03:11:39;;;;;;;1.83;1.13;;;8.70;99.90;;;;;;5422378;26;20271;-83
2024/04/15 03:14:04;;;;;;;0.50;0.40;;;8.70;99.90;;;;;;5422718;26;20221;-83
2024/04/15 03:16:33;;;;;;;0.60;0.60;;;8.60;99.90;;;;;;5422883;26;20806;-83
2024/04/15 03:18:59;;;;;;;0.50;0.50;;;8.60;99.90;;;;;;5422094;26;20213;-83
2024/04/15 03:21:27;;;;;;;1.00;1.00;;;8.70;99.90;;;;;;5422881;26;20251;-83
2024/04/15 03:23:53;;;;;;;0.60;0.60;;;8.60;99.90;;;;;;5422540;26;20286;-82
2024/04/15 03:26:24;;;;;;;1.50;0.60;;;8.60;99.90;;;;;;5423121;26;20228;-82
2024/04/15 03:28:50;;;;;;;0.88;0.88;;;8.50;99.90;;;;;;5421470;26;20276;-84
2024/04/15 03:31:18;;;;;;;0.50;0.40;;;8.50;99.90;;;;;;5422521;26;20217;-83
2024/04/15 03:33:44;;;;;;;0.50;0.50;;;8.50;99.90;;;;;;5422103;26;20212;-83
2024/04/15 03:36:12;;;;;;;1.07;1.07;;;8.50;99.90;;;;;;5422881;26;20757;-82
2024/04/15 03:38:41;;;;;;;0.95;0.95;;;8.40;99.90;;;;;;5420738;26;20478;-83
2024/04/15 03:41:09;;;;;;;3.85;3.65;;;8.40;99.90;;;;;;5422834;26;20621;-83
2024/04/15 03:43:40;;;;;;;0.50;0.40;;;8.40;99.90;;;;;;5422104;26;20299;-82
2024/04/15 03:46:06;;;;;;;2.15;2.05;;;8.40;99.90;;;;;;5422680;26;20268;-83
2024/04/15 03:48:34;;;;;;;0.50;0.40;;;8.40;99.90;;;;;;5422770;26;20334;-83
2024/04/15 03:51:00;;;;;;;1.73;1.60;;;8.40;99.90;;;;;;5423395;26;20841;-83
2024/04/15 03:53:29;;;;;;;0.50;0.50;;;8.40;99.90;;;;;;5423830;26;20228;-83
2024/04/15 03:55:55;;;;;;;1.23;0.80;;;8.30;99.90;;;;;;5424319;26;20746;-82
2024/04/15 03:58:24;;;;;;;0.80;0.80;;;8.20;99.90;;;;;;5423756;26;20327;-83
2024/04/15 04:00:59;;;;;;;1.60;1.50;;;8.20;99.90;;;;;;5423297;26;20294;-83
2024/04/15 04:03:28;;;;;;;1.38;1.33;;;8.20;99.90;;;;;;5422301;26;20293;-83
2024/04/15 04:05:54;;;;;;;0.50;0.40;;;8.10;99.90;;;;;;5422974;26;20220;-81
2024/04/15 04:08:22;;;;;;;2.53;1.90;;;8.10;99.90;;;;;;5423032;26;20314;-83
2024/04/15 04:10:48;;;;;;;0.50;0.40;;;8.10;99.90;;;;;;5424635;26;20283;-83
2024/04/15 04:13:17;;;;;;;0.60;0.60;;;8.10;99.90;;;;;;5422952;26;20294;-82
2024/04/15 04:15:44;;;;;;;1.58;1.58;;;8.10;99.90;;;;;;5424711;26;20224;-83
2024/04/15 04:18:16;;;;;;;0.50;0.47;;;8.00;99.90;;;;;;5427056;26;20232;-83
2024/04/15 04:20:42;;;;;;;0.50;0.50;;;8.00;99.90;;;;;;5429883;26;20268;-83
2024/04/15 04:23:10;;;;;;;0.60;0.60;;;8.00;99.90;;;;;;5424996;26;20290;-81
2024/04/15 04:25:36;;;;;;;0.50;0.40;;;7.90;99.90;;;;;;5422835;26;20256;-83
2024/04/15 04:28:04;;;;;;;3.90;0.57;;;7.90;99.90;;;;;;5426808;26;20314;-81
2024/04/15 04:30:33;;;;;;;2.75;2.45;;;7.90;99.90;;;;;;5428813;26;20688;-82
2024/04/15 04:33:02;;;;;;;2.35;1.02;;;7.90;99.90;;;;;;5426545;26;20225;-82
2024/04/15 04:35:38;;;;;;;1.88;1.35;;;7.90;99.90;;;;;;5419524;26;20216;-81
2024/04/15 04:38:06;;;;;;;0.50;0.50;;;7.90;99.90;;;;;;5419451;26;20275;-79
2024/04/15 04:40:32;;;;;;;0.50;0.40;;;7.90;99.90;;;;;;5419211;26;20213;-82
2024/04/15 04:43:00;;;;;;;2.27;2.10;;;7.90;99.90;;;;;;5419555;26;20250;-83
2024/04/15 04:45:26;;;;;;;0.50;0.45;;;7.90;99.90;;;;;;5421915;26;20450;-82
2024/04/15 04:47:55;;;;;;;0.50;0.40;;;7.90;99.90;;;;;;5422264;26;20298;-82
2024/04/15 04:50:22;;;;;;;1.40;1.40;;;7.90;99.90;;;;;;5421176;26;20264;-82
2024/04/15 04:52:53;;;;;;;0.70;0.70;;;7.90;99.90;;;;;;5420959;26;20556;-82
2024/04/15 04:55:19;;;;;;;0.50;0.40;;;7.90;99.90;;;;;;5411368;26;20281;-80
2024/04/15 04:57:48;;;;;;;3.87;1.20;;;7.90;99.90;;;;;;5417438;26;20318;-81
2024/04/15 05:00:14;;;;;;;0.50;0.40;;;7.90;99.90;;;;;;5418245;26;20355;-82
2024/04/15 05:02:42;;;;;;;0.50;0.40;;;7.90;99.90;;;;;;5418619;26;20254;-79
2024/04/15 05:05:08;;;;;;;0.50;0.50;;;7.90;99.90;;;;;;5417052;26;20308;-82
2024/04/15 05:07:37;;;;;;;2.45;2.17;;;7.90;99.90;;;;;;5418952;26;20224;-83
2024/04/15 05:10:06;;;;;;;0.60;0.60;;;7.90;99.90;;;;;;5419834;26;20317;-82
2024/04/15 05:12:35;;;;;;;0.50;0.45;;;7.90;99.90;;;;;;5419698;26;20720;-82
2024/04/15 05:15:01;;;;;;;1.45;1.20;;;8.00;99.90;;;;;;5418017;26;20272;-81
2024/04/15 05:17:29;;;;;;;0.60;0.60;;;8.00;99.90;;;;;;5417218;26;20325;-83
2024/04/15 05:19:55;;;;;;;0.65;0.65;;;8.00;99.90;;;;;;5417759;26;20344;-83
2024/04/15 05:22:23;;;;;;;0.50;0.47;;;8.00;99.90;;;;;;5417240;26;20229;-83
2024/04/15 05:24:49;;;;;;;1.42;1.30;;;8.00;99.90;;;;;;5416684;26;20458;-84
2024/04/15 05:27:20;;;;;;;1.27;1.27;;;8.00;99.90;;;;;;5418290;26;20216;-84
2024/04/15 05:29:46;;;;;;;0.52;0.52;;;8.00;99.90;;;;;;5416966;26;20510;-82
2024/04/15 05:32:15;;;;;;;2.70;2.50;;;8.00;99.90;;;;;;5417235;26;20325;-82
2024/04/15 05:34:42;;;;;;;2.15;2.05;;;8.00;99.90;;;;;;5417566;26;20213;-83
2024/04/15 05:37:11;;;;;;;2.35;0.60;;;8.00;99.90;;;;;;5415937;26;20290;-82
2024/04/15 05:39:36;;;;;;;2.08;1.40;;;8.00;99.90;;;;;;5415360;26;20272;-83
2024/04/15 05:42:05;;;;;;;0.50;0.40;;;8.00;99.90;;;;;;5415429;26;20294;-82
2024/04/15 05:44:33;;;;;;;0.50;0.40;;;8.00;99.90;;;;;;5415353;26;20470;-84
2024/04/15 05:47:02;;;;;;;1.27;1.17;;;8.10;99.90;;;;;;5420396;26;20276;-84
2024/04/15 05:49:30;;;;;;;2.85;2.75;;;8.30;99.90;;;;;;5418341;26;20205;-81
2024/04/15 05:51:59;;;;;;;0.95;0.95;;;8.40;99.90;;;;;;5417612;26;20273;-82
2024/04/15 05:54:24;;;;;;;0.50;0.40;;;8.50;99.90;;;;;;5422632;26;20325;-81
2024/04/15 05:56:53;;;;;;;1.20;1.17;;;8.70;99.90;;;;;;5425414;26;20224;-82
2024/04/15 05:59:19;;;;;;;0.90;0.60;;;8.80;99.90;;;;;;5424664;26;20228;-84
2024/04/15 06:01:50;;;;;;;0.63;0.63;;;8.90;99.90;;;;;;5425830;26;20248;-84
2024/04/15 06:04:16;;;;;;;0.50;0.50;;;8.80;99.90;;;;;;5425387;26;20265;-85
2024/04/15 06:06:44;;;;;;;0.57;0.53;;;8.70;99.90;;;;;;5424929;26;20229;-84
2024/04/15 06:09:10;;;;;;;0.50;0.40;;;8.70;99.90;;;;;;5423899;26;20259;-83
2024/04/15 06:11:38;;;;;;;0.80;0.80;;;8.80;99.90;;;;;;5422822;26;20271;-82
2024/04/15 06:14:04;;;;;;;0.50;0.40;;;8.70;99.90;;;;;;5422515;26;20272;-82
2024/04/15 06:16:33;;;;;;;0.50;0.50;;;8.70;99.90;;;;;;5422077;26;20668;-83
2024/04/15 06:19:01;;;;;;;2.45;2.25;;;8.70;99.90;;;;;;5419963;26;20228;-82
2024/04/15 06:21:29;;;;;;;0.50;0.50;;;8.70;99.90;;;;;;5419668;26;20280;-82
2024/04/15 06:23:55;;;;;;;0.98;0.98;;;8.70;99.90;;;;;;5419091;26;20244;-84
2024/04/15 06:26:23;;;;;;;2.60;2.50;;;8.70;99.90;;;;;;5419893;26;20317;-83
2024/04/15 06:28:49;;;;;;;0.77;0.77;;;8.60;99.90;;;;;;5419360;26;20370;-84
2024/04/15 06:31:18;;;;;;;0.60;0.60;;;8.70;99.90;;;;;;5420313;26;20229;-83
2024/04/15 06:33:43;;;;;;;0.95;0.95;;;8.70;99.90;;;;;;5420858;26;20312;-85
2024/04/15 06:36:14;;;;;;;1.10;1.00;;;8.80;99.90;;;;;;5427885;26;20228;-84
2024/04/15 06:38:40;;;;;;;4.30;0.88;;;9.00;99.90;;;;;;5422985;26;20217;-84
2024/04/15 06:41:09;;;;;;;2.83;2.70;;;9.30;99.90;;;;;;5425381;26;20853;-84
2024/04/15 06:43:35;;;;;;;1.45;1.35;;;9.40;99.90;;;;;;5425348;26;20224;-84
2024/04/15 06:46:04;;;;;;;1.42;0.80;;;9.50;99.90;;;;;;5422889;26;20246;-82
2024/04/15 06:48:29;;;;;;;0.93;0.80;;;9.60;99.90;;;;;;5423225;26;20232;-84
2024/04/15 06:50:58;;;;;;;1.00;0.90;;;9.70;99.90;;;;;;5424061;26;20283;-84
2024/04/15 06:53:27;;;;;;;1.42;1.33;;;9.80;99.90;;;;;;5423768;26;20286;-84
2024/04/15 06:55:55;;;;;;;0.77;0.77;;;9.90;99.90;;;;;;5424110;26;20205;-84
2024/04/15 06:58:21;;;;;;;3.55;2.10;;;9.80;99.90;;;;;;5425152;26;20319;-83
2024/04/15 07:00:50;;;;;;;0.50;0.50;;;9.80;99.90;;;;;;5425910;26;20216;-83
2024/04/15 07:03:15;;;;;;;0.60;0.60;;;9.80;99.90;;;;;;5424453;26;20467;-84
2024/04/15 07:05:44;;;;;;;2.00;0.80;;;9.90;99.90;;;;;;5425284;26;20216;-84
2024/04/15 07:08:09;;;;;;;0.70;0.60;;;10.10;99.90;;;;;;5433751;26;20232;-82
2024/04/15 07:10:41;;;;;;;0.60;0.60;;;10.20;99.90;;;;;;5440868;26;20294;-81
2024/04/15 07:13:08;;;;;;;0.93;0.63;;;10.20;99.90;;;;;;5440752;26;20235;-81
2024/04/15 07:15:36;;;;;;;1.37;0.70;;;10.60;99.90;;;;;;5440554;26;20286;-82
2024/04/15 07:18:02;;;;;;;1.43;1.33;;;11.20;99.90;;;;;;5440480;26;20450;-84
2024/04/15 07:20:31;;;;;;;0.50;0.40;;;11.80;99.90;;;;;;5431908;26;20450;-84
2024/04/15 07:22:57;;;;;;;0.50;0.40;;;12.10;99.90;;;;;;5421390;26;21043;-82
2024/04/15 07:25:25;;;;;;;1.03;1.03;;;12.30;99.90;;;;;;5421669;26;20449;-83
2024/04/15 07:27:54;;;;;;;1.63;1.53;;;12.20;99.90;;;;;;5422601;26;20319;-82
2024/04/15 07:30:22;;;;;;;0.57;0.57;;;11.90;99.90;;;;;;5424130;26;20921;-82
2024/04/15 07:32:48;;;;;;;0.50;0.40;;;11.60;99.90;;;;;;5423933;26;21005;-84
2024/04/15 07:35:16;;;;;;;1.03;0.80;;;11.70;99.90;;;;;;5424546;26;20552;-84
2024/04/15 07:37:44;;;;;;;0.97;0.97;;;12.20;99.90;;;;;;5424510;26;20238;-84
2024/04/15 07:40:13;;;;;;;0.63;0.63;;;12.30;99.90;;;;;;5424269;26;20499;-84
2024/04/15 07:42:39;;;;;;;1.30;1.20;;;12.80;99.90;;;;;;5424208;26;20557;-84
2024/04/15 07:45:11;;;;;;;0.50;0.40;;;13.20;99.90;;;;;;5424120;26;20453;-82
2024/04/15 07:47:36;;;;;;;2.87;1.33;;;13.40;99.90;;;;;;5423652;26;20574;-84
2024/04/15 07:50:05;;;;;;;1.90;0.87;;;14.00;99.90;;;;;;5423419;26;20474;-84
2024/04/15 07:52:31;;;;;;;0.80;0.70;;;14.10;99.90;;;;;;5423507;26;20208;-84
2024/04/15 07:55:00;;;;;;;1.33;1.13;;;13.70;99.90;;;;;;5423081;26;20545;-82
2024/04/15 07:57:26;;;;;;;1.17;0.70;;;13.70;99.90;;;;;;5424221;26;20278;-83
2024/04/15 07:59:54;;;;;;;1.50;1.50;;;14.00;99.90;;;;;;5423639;26;20982;-84
2024/04/15 08:02:23;;;;;;;0.60;0.50;;;14.40;99.90;;;;;;5424622;26;20331;-84
2024/04/15 08:04:52;;;;;;;0.50;0.40;;;14.60;99.90;;;;;;5424503;26;20503;-83
2024/04/15 08:07:20;;;;;;;0.50;0.50;;;14.90;99.90;;;;;;5421061;26;20467;-82
2024/04/15 08:09:49;;;;;;;0.80;0.80;;;14.80;99.90;;;;;;5422322;26;20450;-84
2024/04/15 08:12:15;;;;;;;2.63;2.47;;;15.20;99.90;;;;;;5423532;26;20934;-86
2024/04/15 08:14:43;;;;;;;0.60;0.50;;;15.40;99.90;;;;;;5418619;26;20505;-84
2024/04/15 08:17:10;;;;;;;0.60;0.40;;;16.40;99.90;;;;;;5419637;26;20529;-85
2024/04/15 08:19:42;;;;;;;0.50;0.40;;;16.90;99.90;;;;;;5420616;26;20502;-85
2024/04/15 08:22:08;;;;;;;1.17;1.17;;;17.10;99.90;;;;;;5420192;26;21043;-85
2024/04/15 08:25:08;;;;;;;0.60;0.50;;;17.00;99.90;;;;;;5433579;26;20481;-83
2024/04/15 08:27:34;;;;;;;0.50;0.40;;;16.10;99.90;;;;;;5421727;26;20217;-84
2024/04/15 08:46:27;;;;;;;0.50;0.40;;;13.40;99.90;;;;;;5432868;26;20453;-84
2024/04/15 08:48:53;;;;;;;5.10;1.40;;;13.40;99.90;;;;;;5422753;26;20571;-85
2024/04/15 09:03:50;;;;;;;0.50;0.50;;;14.60;99.90;;;;;;5417860;26;20495;-83
2024/04/15 09:06:16;;;;;;;0.50;0.50;;;14.60;99.90;;;;;;5417044;26;20746;-84
2024/04/15 09:26:29;;;;;;;1.20;1.10;;;13.40;99.90;;;;;;5418479;26;20493;-82
2024/04/15 09:28:56;;;;;;;0.50;0.40;;;13.40;99.90;;;;;;5422110;26;20477;-83
2024/04/15 09:31:25;;;;;;;0.50;0.43;;;13.10;99.90;;;;;;5423895;26;20568;-83
2024/04/15 09:33:51;;;;;;;4.07;0.97;;;13.30;99.90;;;;;;5424612;26;20560;-82
2024/04/15 09:36:20;;;;;;;1.07;1.00;;;13.30;99.90;;;;;;5424083;26;20456;-82
2024/04/15 09:38:47;;;;;;;0.50;0.40;;;12.90;99.90;;;;;;5425549;26;20468;-83
2024/04/15 09:41:18;;;;;;;0.87;0.87;;;12.80;99.90;;;;;;5425968;26;20468;-82
2024/04/15 09:43:48;;;;;;;1.13;1.03;;;12.80;99.90;;;;;;5424677;26;20461;-83
2024/04/15 09:46:16;;;;;;;0.60;0.60;;;12.70;99.90;;;;;;5426103;26;20450;-83
2024/04/15 09:48:43;;;;;;;0.70;0.70;;;12.30;99.90;;;;;;5426361;26;20515;-82
2024/04/15 09:51:20;;;;;;;1.03;0.93;;;12.20;99.90;;;;;;5425084;26;20916;-83
2024/04/15 09:53:50;;;;;;;0.50;0.40;;;12.40;99.90;;;;;;5426083;26;20469;-84
2024/04/15 09:56:26;;;;;;;0.50;0.40;;;12.70;99.90;;;;;;5425050;26;20449;-84
2024/04/15 09:58:56;;;;;;;0.50;0.50;;;12.70;99.90;;;;;;5424027;26;20503;-82
2024/04/15 10:01:31;;;;;;;0.73;0.73;;;12.80;99.90;;;;;;5426202;26;20508;-84
2024/04/15 10:04:00;;;;;;;0.83;0.73;;;12.50;99.90;;;;;;5428114;26;20503;-81
2024/04/15 10:06:33;;;;;;;1.47;0.73;;;12.20;99.90;;;;;;5424505;26;20563;-82
2024/04/15 10:08:59;;;;;;;0.70;0.70;;;12.10;99.90;;;;;;5424934;26;20530;-82
2024/04/15 10:11:29;;;;;;;0.70;0.60;;;12.60;99.90;;;;;;5425468;26;20473;-82
2024/04/15 10:13:58;;;;;;;0.60;0.60;;;13.60;99.90;;;;;;5426747;26;20449;-83
2024/04/15 10:16:28;;;;;;;0.50;0.40;;;14.80;99.90;;;;;;5424253;26;20521;-85
2024/04/15 10:18:58;;;;;;;1.00;0.70;;;14.60;99.90;;;;;;5422429;26;20614;-84
2024/04/15 10:21:31;;;;;;;0.60;0.50;;;14.50;99.90;;;;;;5423311;26;20576;-83
2024/04/15 10:23:57;;;;;;;0.70;0.50;;;14.60;99.90;;;;;;5424373;26;20470;-83
2024/04/15 10:26:28;;;;;;;0.50;0.40;;;14.90;99.90;;;;;;5423144;26;21093;-83
2024/04/15 10:29:15;;;;;;;1.20;1.10;;;14.30;99.90;;;;;;5424121;26;20600;-85
2024/04/15 10:31:44;;;;;;;0.70;0.70;;;14.00;99.90;;;;;;5424922;26;20530;-83
2024/04/15 10:34:14;;;;;;;8.13;1.07;;;14.50;99.90;;;;;;5424839;26;20450;-82
2024/04/15 10:36:43;;;;;;;0.97;0.70;;;13.80;99.90;;;;;;5424232;26;20793;-84
2024/04/15 10:39:15;;;;;;;0.70;0.60;;;14.40;99.90;;;;;;5423215;26;20458;-85
2024/04/15 10:41:44;;;;;;;1.83;1.03;;;15.80;99.90;;;;;;5424659;26;20454;-82
2024/04/15 10:44:13;;;;;;;0.50;0.40;;;16.20;99.90;;;;;;5423633;26;20434;-81
2024/04/15 10:46:44;;;;;;;0.50;0.40;;;16.10;99.90;;;;;;5424166;26;20883;-82
2024/04/15 10:49:10;;;;;;;0.50;0.37;;;17.30;99.90;;;;;;5420735;26;20460;-82
2024/04/15 10:51:38;;;;;;;0.50;0.50;;;17.00;97.40;;;;;;5420357;26;21037;-80
2024/04/15 10:54:05;;;;;;;1.27;1.17;;;16.20;98.10;;;;;;5418802;26;20478;-80
2024/04/15 10:56:33;;;;;;;0.50;0.40;;;15.50;98.80;;;;;;5419286;26;20451;-81
2024/04/15 10:58:59;;;;;;;1.37;0.70;;;15.00;99.90;;;;;;5418736;26;20474;-81
2024/04/15 11:01:31;;;;;;;0.60;0.60;;;14.10;99.90;;;;;;5420478;26;20457;-79
2024/04/15 11:03:57;;;;;;;0.50;0.50;;;14.00;99.90;;;;;;5425287;26;20494;-83
2024/04/15 11:06:25;;;;;;;0.50;0.40;;;13.90;99.90;;;;;;5424091;26;20995;-82
2024/04/15 11:08:51;;;;;;;0.50;0.50;;;13.60;99.90;;;;;;5424372;26;20611;-83
2024/04/15 11:11:20;;;;;;;0.50;0.40;;;13.70;99.90;;;;;;5423320;26;20542;-82
2024/04/15 11:13:46;;;;;;;1.20;0.70;;;14.00;99.90;;;;;;5424058;26;20513;-83
2024/04/15 11:16:15;;;;;;;0.77;0.67;;;13.80;99.90;;;;;;5424988;26;20569;-81
2024/04/15 11:18:43;;;;;;;1.27;1.13;;;13.90;99.90;;;;;;5425521;26;20499;-83
2024/04/15 11:21:12;;;;;;;1.37;1.27;;;14.60;99.90;;;;;;5425201;26;20454;-82
2024/04/15 11:23:37;;;;;;;1.13;0.87;;;15.30;99.90;;;;;;5423193;26;20466;-82
2024/04/15 11:26:07;;;;;;;0.50;0.40;;;15.60;99.90;;;;;;5423893;26;20527;-82
2024/04/15 11:28:33;;;;;;;1.63;0.80;;;15.70;99.90;;;;;;5422924;26;20325;-82
2024/04/15 11:31:03;;;;;;;1.10;0.70;;;15.20;98.10;;;;;;5422214;26;20964;-83
2024/04/15 11:33:29;;;;;;;2.10;1.23;;;14.60;96.80;;;;;;5424373;26;21300;-82
2024/04/15 11:36:00;;;;;;;3.10;1.50;;;14.40;99.10;;;;;;5424353;26;20502;-82
2024/04/15 11:38:26;;;;;;;0.97;0.50;;;14.30;99.90;;;;;;5424707;26;20549;-81
2024/04/15 11:40:55;;;;;;;0.70;0.70;;;14.60;99.90;;;;;;5422734;26;20458;-82
2024/04/15 11:43:21;;;;;;;0.50;0.40;;;15.10;99.30;;;;;;5424941;26;20443;-82
2024/04/15 11:45:53;;;;;;;0.80;0.80;;;14.80;99.90;;;;;;5421192;26;20569;-85
2024/04/15 11:48:19;;;;;;;0.60;0.50;;;14.70;99.90;;;;;;5420285;26;20534;-82
2024/04/15 11:50:50;;;;;;;4.77;1.93;;;14.60;99.90;;;;;;5417451;26;20851;-82
2024/04/15 11:53:24;;;;;;;0.70;0.70;;;15.10;99.90;;;;;;5420383;26;20588;-83
2024/04/15 11:55:52;;;;;;;1.30;0.77;;;14.80;99.70;;;;;;5421044;26;20461;-81
2024/04/15 11:58:22;;;;;;;1.20;0.60;;;14.30;99.60;;;;;;5419374;26;20855;-83
2024/04/15 12:00:48;;;;;;;0.70;0.70;;;13.90;99.90;;;;;;5420433;26;20473;-82
2024/04/15 12:03:18;;;;;;;0.50;0.50;;;13.60;99.90;;;;;;5421278;26;20535;-81
2024/04/15 12:05:44;;;;;;;2.30;1.90;;;13.40;99.90;;;;;;5421389;26;20212;-80
2024/04/15 12:08:13;;;;;;;1.47;0.70;;;13.50;99.90;;;;;;5420602;26;20521;-83
2024/04/15 12:10:42;;;;;;;0.67;0.50;;;13.40;99.90;;;;;;5419755;26;20959;-80
2024/04/15 12:13:10;;;;;;;0.50;0.40;;;13.40;99.90;;;;;;5418947;26;20469;-83
2024/04/15 12:15:36;;;;;;;0.70;0.50;;;13.40;99.90;;;;;;5418626;26;20521;-83
2024/04/15 12:18:06;;;;;;;1.33;1.23;;;13.20;99.90;;;;;;5418558;26;20580;-83
2024/04/15 12:20:31;;;;;;;1.13;0.93;;;12.90;99.90;;;;;;5419038;26;20324;-81
2024/04/15 12:23:01;;;;;;;0.50;0.50;;;12.80;99.90;;;;;;5417314;26;20461;-82
2024/04/15 12:25:27;;;;;;;1.13;0.80;;;12.70;99.90;;;;;;5418277;26;20311;-82
2024/04/15 12:27:58;;;;;;;0.50;0.40;;;12.60;99.90;;;;;;5419284;26;20460;-82
2024/04/15 12:30:23;;;;;;;2.63;0.83;;;12.60;99.90;;;;;;5417656;26;20259;-82
2024/04/15 12:32:56;;;;;;;2.80;2.60;;;12.40;99.90;;;;;;5417346;26;20464;-82
2024/04/15 12:35:22;;;;;;;0.90;0.90;;;12.10;99.90;;;;;;5420269;26;20225;-83
2024/04/15 12:37:50;;;;;;;1.83;0.93;;;12.00;99.90;;;;;;5424215;26;20578;-82
2024/04/15 12:40:16;;;;;;;3.13;1.33;;;11.60;99.90;;;;;;5420643;26;20291;-82
2024/04/15 12:42:45;;;;;;;0.83;0.70;;;11.30;99.90;;;;;;5420971;26;20864;-82
2024/04/15 12:45:15;;;;;;;1.43;1.33;;;11.20;99.90;;;;;;5419672;26;20499;-83
2024/04/15 12:47:44;;;;;;;0.80;0.80;;;11.10;99.90;;;;;;5420860;26;20573;-82
2024/04/15 12:50:10;;;;;;;1.50;1.17;;;10.90;99.90;;;;;;5420436;26;20450;-83
2024/04/15 12:52:39;;;;;;;3.70;0.63;;;10.80;99.90;;;;;;5421117;26;20229;-82
2024/04/15 12:55:05;;;;;;;0.60;0.60;;;10.80;99.90;;;;;;5420910;26;20217;-82
2024/04/15 12:57:33;;;;;;;0.60;0.50;;;10.70;99.90;;;;;;5422013;26;20546;-82
2024/04/15 12:59:59;;;;;;;2.00;1.00;;;10.70;99.90;;;;;;5422350;26;20221;-83
2024/04/15 13:02:30;;;;;;;2.50;1.13;;;10.60;99.90;;;;;;5426876;26;20431;-83
2024/04/15 13:04:56;;;;;;;0.70;0.70;;;10.60;99.90;;;;;;5426779;26;20260;-84
2024/04/15 13:07:25;;;;;;;0.90;0.60;;;10.50;99.90;;;;;;5422176;26;20236;-85
2024/04/15 13:09:51;;;;;;;0.50;0.50;;;10.40;99.90;;;;;;5421741;26;20260;-85
2024/04/15 13:12:19;;;;;;;0.70;0.70;;;10.30;99.90;;;;;;5426933;26;20337;-84
2024/04/15 13:14:45;;;;;;;0.60;0.50;;;10.40;99.90;;;;;;5426035;26;20218;-83
2024/04/15 13:17:13;;;;;;;0.50;0.40;;;10.40;99.90;;;;;;5422707;26;20308;-84
2024/04/15 13:19:42;;;;;;;2.13;0.97;;;10.50;99.90;;;;;;5418496;26;20603;-82
2024/04/15 13:22:10;;;;;;;0.50;0.40;;;10.80;99.90;;;;;;5423506;26;20571;-81
2024/04/15 13:24:36;;;;;;;0.60;0.50;;;10.80;99.90;;;;;;5418988;26;20252;-83
2024/04/15 13:27:05;;;;;;;0.50;0.50;;;10.90;99.90;;;;;;5417999;26;20727;-82
2024/04/15 13:29:31;;;;;;;0.85;0.50;;;10.90;99.90;;;;;;5419208;26;20623;-85
2024/04/15 13:32:00;;;;;;;0.60;0.50;;;11.00;99.90;;;;;;5418491;26;20244;-83
2024/04/15 13:34:25;;;;;;;1.20;0.80;;;11.10;99.90;;;;;;5417501;26;20496;-82
2024/04/15 13:36:56;;;;;;;0.50;0.50;;;11.20;99.90;;;;;;5418267;26;21004;-84
2024/04/15 13:39:22;;;;;;;0.80;0.80;;;11.20;99.90;;;;;;5418152;26;20233;-82
2024/04/15 13:41:51;;;;;;;0.50;0.50;;;11.30;99.90;;;;;;5418027;26;20792;-83
2024/04/15 13:44:18;;;;;;;0.70;0.60;;;11.30;99.90;;;;;;5416995;26;20518;-84